Time;durP1;ratioP1;P1;durP2;ratioP2;P2;SDS_P1;SDS_P2;PMS_P1;PMS_P2;Temp;Humidity;BMP_temperature;BMP_pressure;BME280_temperature;BME280_humidity;BME280_pressure;Samples;Min_cycle;Max_cycle;Signal;HPM_P1;HPM_P2
2022/08/31 00:04:47;;;;;;;2.40;1.90;;;16.60;99.90;;;;;;5102740;28;20577;-80
2022/08/31 00:07:14;;;;;;;3.70;2.93;;;16.60;99.90;;;;;;5104232;28;20467;-80
2022/08/31 00:09:42;;;;;;;3.60;2.37;;;16.60;99.90;;;;;;5102417;28;20478;-83
2022/08/31 00:12:09;;;;;;;2.70;2.07;;;16.60;99.90;;;;;;5104268;28;20461;-83
2022/08/31 00:14:36;;;;;;;2.50;2.07;;;16.50;99.90;;;;;;5103238;28;20543;-83
2022/08/31 00:17:03;;;;;;;2.67;1.90;;;16.50;99.90;;;;;;5105924;28;20484;-84
2022/08/31 00:19:31;;;;;;;3.30;2.80;;;16.60;99.90;;;;;;5113735;28;20492;-81
2022/08/31 00:21:58;;;;;;;6.53;3.23;;;16.60;99.90;;;;;;5109175;28;20509;-81
2022/08/31 00:24:25;;;;;;;2.10;1.53;;;16.60;99.90;;;;;;5110624;28;20516;-80
2022/08/31 00:26:53;;;;;;;2.70;2.27;;;16.50;99.90;;;;;;5103433;28;20493;-85
2022/08/31 00:29:20;;;;;;;3.90;2.80;;;16.50;99.90;;;;;;5098762;28;20461;-82
2022/08/31 00:31:47;;;;;;;2.00;1.80;;;16.40;99.90;;;;;;5102844;28;20469;-83
2022/08/31 00:34:14;;;;;;;2.53;1.70;;;16.40;99.90;;;;;;5101677;28;20517;-84
2022/08/31 00:36:41;;;;;;;3.10;2.13;;;16.30;99.90;;;;;;5102639;28;20522;-80
2022/08/31 00:39:08;;;;;;;6.33;3.27;;;16.40;99.90;;;;;;5097765;28;20461;-82
2022/08/31 00:41:37;;;;;;;2.27;2.07;;;16.50;99.90;;;;;;5097356;28;20512;-84
2022/08/31 00:44:09;;;;;;;4.50;2.40;;;16.40;99.90;;;;;;5097708;28;20870;-80
2022/08/31 00:46:39;;;;;;;2.90;2.70;;;16.50;99.90;;;;;;5101306;28;20456;-83
2022/08/31 00:49:10;;;;;;;2.30;2.10;;;16.50;99.90;;;;;;5095501;28;20591;-83
2022/08/31 00:51:41;;;;;;;2.77;2.10;;;16.50;99.90;;;;;;5102755;28;20496;-80
2022/08/31 00:54:11;;;;;;;4.77;2.20;;;16.50;99.90;;;;;;5101001;28;20467;-80
2022/08/31 00:56:40;;;;;;;4.47;2.10;;;16.60;99.90;;;;;;5100152;28;20964;-80
2022/08/31 00:59:08;;;;;;;3.00;2.43;;;16.60;99.90;;;;;;5099476;28;20514;-80
2022/08/31 01:01:35;;;;;;;4.33;2.23;;;16.60;99.90;;;;;;5098597;28;20485;-80
2022/08/31 01:04:03;;;;;;;4.40;3.10;;;16.70;99.90;;;;;;5100464;28;20460;-81
2022/08/31 01:06:30;;;;;;;2.27;2.07;;;16.70;99.90;;;;;;5099013;28;20462;-80
2022/08/31 01:09:00;;;;;;;3.80;2.80;;;16.70;99.90;;;;;;5104977;28;20461;-80
2022/08/31 01:11:28;;;;;;;3.17;2.23;;;16.60;99.90;;;;;;5102310;27;21024;-79
2022/08/31 01:13:56;;;;;;;3.63;2.30;;;16.60;99.90;;;;;;5103304;27;20526;-80
2022/08/31 01:16:29;;;;;;;3.00;2.07;;;16.50;99.90;;;;;;5103991;27;20455;-80
2022/08/31 01:19:00;;;;;;;5.23;3.23;;;16.50;99.90;;;;;;5105538;27;20491;-80
2022/08/31 01:21:30;;;;;;;1.77;1.47;;;16.50;99.90;;;;;;5098907;27;20484;-81
2022/08/31 01:24:01;;;;;;;2.30;1.90;;;16.40;99.90;;;;;;5100666;27;20513;-79
2022/08/31 01:26:30;;;;;;;3.73;2.10;;;16.40;99.90;;;;;;5103632;27;20475;-83
2022/08/31 01:29:05;;;;;;;2.43;1.80;;;16.40;99.90;;;;;;5105263;28;20514;-83
2022/08/31 01:31:34;;;;;;;2.37;2.17;;;16.40;99.90;;;;;;5105367;27;20503;-80
2022/08/31 01:34:01;;;;;;;3.80;2.73;;;16.40;99.90;;;;;;5101363;28;20460;-83
2022/08/31 01:36:29;;;;;;;6.30;2.30;;;16.40;99.90;;;;;;5105873;27;20506;-82
2022/08/31 01:38:56;;;;;;;3.43;2.27;;;16.30;99.90;;;;;;5102338;27;20456;-80
2022/08/31 01:41:24;;;;;;;1.70;1.60;;;16.20;99.90;;;;;;5099686;28;20495;-80
2022/08/31 01:43:53;;;;;;;2.87;2.43;;;16.20;99.90;;;;;;5106734;27;21169;-80
2022/08/31 01:46:21;;;;;;;5.50;3.27;;;16.10;99.90;;;;;;5104174;28;20532;-80
2022/08/31 01:48:49;;;;;;;3.40;2.10;;;16.10;99.90;;;;;;5097387;27;20464;-80
2022/08/31 01:51:19;;;;;;;4.23;1.70;;;16.10;99.90;;;;;;5096706;28;20550;-78
2022/08/31 01:53:49;;;;;;;3.07;2.33;;;16.10;99.90;;;;;;5104906;27;20465;-83
2022/08/31 01:56:20;;;;;;;6.47;1.90;;;16.10;99.90;;;;;;5101696;27;20491;-79
2022/08/31 01:58:48;;;;;;;3.27;2.20;;;16.10;99.90;;;;;;5107682;27;20846;-81
2022/08/31 02:01:16;;;;;;;3.33;1.90;;;16.10;99.90;;;;;;5100930;27;21073;-80
2022/08/31 02:03:43;;;;;;;3.10;1.90;;;16.00;99.90;;;;;;5097139;27;20529;-81
2022/08/31 02:06:12;;;;;;;1.80;1.70;;;16.10;99.90;;;;;;5106356;27;20470;-79
2022/08/31 02:08:40;;;;;;;3.10;2.67;;;16.10;99.90;;;;;;5103713;27;20552;-83
2022/08/31 02:11:07;;;;;;;4.00;2.07;;;16.10;99.90;;;;;;5097959;27;20543;-78
2022/08/31 02:13:35;;;;;;;5.43;3.00;;;16.10;99.90;;;;;;5097836;27;20984;-80
2022/08/31 02:16:04;;;;;;;3.33;2.27;;;16.00;99.90;;;;;;5096446;27;20462;-80
2022/08/31 02:18:32;;;;;;;6.23;2.70;;;16.00;99.90;;;;;;5101334;27;20458;-81
2022/08/31 02:20:59;;;;;;;3.47;2.10;;;16.00;99.90;;;;;;5099783;28;20479;-81
2022/08/31 02:23:26;;;;;;;2.10;1.90;;;16.00;99.90;;;;;;5098216;27;21253;-82
2022/08/31 02:25:54;;;;;;;3.53;2.07;;;16.00;99.90;;;;;;5100416;28;20944;-83
2022/08/31 02:28:21;;;;;;;1.90;1.80;;;16.00;99.90;;;;;;5101158;28;20487;-80
2022/08/31 02:30:49;;;;;;;3.10;2.07;;;16.00;99.90;;;;;;5105891;27;20469;-82
2022/08/31 02:33:17;;;;;;;2.27;1.90;;;16.00;99.90;;;;;;5101440;28;20504;-80
2022/08/31 02:35:45;;;;;;;3.83;2.27;;;16.00;99.90;;;;;;5102757;28;20464;-79
2022/08/31 02:38:12;;;;;;;1.87;1.67;;;16.00;99.90;;;;;;5103028;27;20465;-79
2022/08/31 02:40:40;;;;;;;5.30;2.37;;;16.00;99.90;;;;;;5100381;28;20485;-79
2022/08/31 02:43:08;;;;;;;4.43;1.97;;;16.00;99.90;;;;;;5105291;27;20469;-83
2022/08/31 02:45:35;;;;;;;3.13;2.00;;;16.00;99.90;;;;;;5105745;28;20455;-80
2022/08/31 02:48:02;;;;;;;1.80;1.50;;;16.00;99.90;;;;;;5101336;28;20499;-79
2022/08/31 02:50:31;;;;;;;2.90;1.60;;;16.00;99.90;;;;;;5100942;28;20447;-80
2022/08/31 02:52:58;;;;;;;1.90;1.80;;;16.10;99.90;;;;;;5103966;28;20465;-79
2022/08/31 02:55:27;;;;;;;4.87;1.70;;;16.20;99.90;;;;;;5101582;27;20473;-79
2022/08/31 02:57:54;;;;;;;2.20;1.53;;;16.10;99.90;;;;;;5100449;27;20534;-79
2022/08/31 03:00:23;;;;;;;1.83;1.30;;;16.10;99.90;;;;;;5104248;28;20501;-82
2022/08/31 03:02:50;;;;;;;3.73;1.90;;;16.10;99.90;;;;;;5104288;28;20457;-81
2022/08/31 03:05:17;;;;;;;1.23;1.07;;;16.10;99.90;;;;;;5097602;27;20477;-80
2022/08/31 03:07:45;;;;;;;1.60;1.40;;;16.10;99.90;;;;;;5099807;28;20464;-79
2022/08/31 03:10:14;;;;;;;1.77;0.90;;;16.10;99.90;;;;;;5093721;28;20530;-80
2022/08/31 03:12:41;;;;;;;2.20;2.00;;;16.10;99.90;;;;;;5102533;27;20454;-80
2022/08/31 03:15:10;;;;;;;2.47;2.20;;;16.00;99.90;;;;;;5104121;27;21007;-83
2022/08/31 03:17:37;;;;;;;2.83;1.83;;;16.00;99.90;;;;;;5105337;28;20452;-79
2022/08/31 03:20:06;;;;;;;1.70;1.60;;;16.00;99.90;;;;;;5103043;28;20468;-83
2022/08/31 03:22:34;;;;;;;2.33;2.10;;;16.10;99.90;;;;;;5104231;28;20674;-80
2022/08/31 03:25:03;;;;;;;5.57;2.10;;;16.10;99.90;;;;;;5090213;28;20456;-79
2022/08/31 03:27:30;;;;;;;2.03;1.47;;;16.10;99.90;;;;;;5103997;28;20461;-80
2022/08/31 03:29:58;;;;;;;2.57;1.93;;;16.10;99.90;;;;;;5105526;28;20857;-79
2022/08/31 03:32:26;;;;;;;2.50;2.30;;;16.10;99.90;;;;;;5104439;27;20468;-81
2022/08/31 03:35:02;;;;;;;2.37;1.70;;;16.10;99.90;;;;;;5101337;28;21055;-86
2022/08/31 03:37:34;;;;;;;1.30;1.20;;;16.10;99.90;;;;;;5104039;27;20512;-84
2022/08/31 03:40:06;;;;;;;3.70;1.70;;;16.00;99.90;;;;;;5096097;27;20745;-80
2022/08/31 03:42:35;;;;;;;2.00;1.20;;;16.00;99.90;;;;;;5102458;28;20479;-84
2022/08/31 03:45:03;;;;;;;1.23;1.13;;;16.00;99.90;;;;;;5093438;28;20452;-81
2022/08/31 03:47:30;;;;;;;2.90;1.20;;;15.90;99.90;;;;;;5093751;28;20522;-81
2022/08/31 03:49:57;;;;;;;4.70;2.30;;;16.00;99.90;;;;;;5102171;27;20467;-82
2022/08/31 03:52:24;;;;;;;2.47;1.93;;;16.00;99.90;;;;;;5100564;27;20471;-86
2022/08/31 03:54:51;;;;;;;3.43;2.43;;;15.90;99.90;;;;;;5092110;28;20959;-80
2022/08/31 03:57:20;;;;;;;2.00;1.77;;;15.90;99.90;;;;;;5104024;28;20462;-83
2022/08/31 03:59:47;;;;;;;5.73;1.40;;;15.90;99.90;;;;;;5096431;28;20930;-80
2022/08/31 04:02:14;;;;;;;5.90;2.47;;;15.90;99.90;;;;;;5099793;27;20543;-82
2022/08/31 04:04:41;;;;;;;1.67;1.47;;;15.80;99.90;;;;;;5096230;28;20457;-80
2022/08/31 04:07:08;;;;;;;1.40;1.10;;;15.80;99.90;;;;;;5102073;28;20492;-80
2022/08/31 04:09:35;;;;;;;1.73;1.40;;;15.70;99.90;;;;;;5101050;27;20463;-80
2022/08/31 04:12:02;;;;;;;6.20;2.03;;;15.70;99.90;;;;;;5099526;28;20545;-80
2022/08/31 04:14:30;;;;;;;1.63;1.40;;;15.80;99.90;;;;;;5103107;28;20518;-79
2022/08/31 04:16:59;;;;;;;2.00;1.43;;;15.80;99.90;;;;;;5104270;28;20872;-81
2022/08/31 04:19:26;;;;;;;2.27;1.97;;;15.80;99.90;;;;;;5102566;28;20504;-83
2022/08/31 04:21:54;;;;;;;2.33;2.13;;;15.80;99.90;;;;;;5100732;28;21007;-84
2022/08/31 04:24:21;;;;;;;2.83;1.80;;;15.80;99.90;;;;;;5099682;28;20465;-81
2022/08/31 04:26:51;;;;;;;4.50;2.07;;;15.80;99.90;;;;;;5102348;28;20482;-78
2022/08/31 04:29:18;;;;;;;3.27;1.60;;;15.80;99.90;;;;;;5093006;28;21138;-80
2022/08/31 04:31:47;;;;;;;3.00;2.30;;;15.80;99.90;;;;;;5100731;28;20513;-82
2022/08/31 04:34:14;;;;;;;1.57;1.47;;;15.80;99.90;;;;;;5099592;28;20449;-80
2022/08/31 04:36:44;;;;;;;3.13;1.57;;;15.80;99.90;;;;;;5104201;28;20454;-83
2022/08/31 04:39:11;;;;;;;2.07;1.90;;;15.80;99.90;;;;;;5095564;28;20545;-80
2022/08/31 04:41:39;;;;;;;2.77;1.50;;;15.80;99.90;;;;;;5098036;28;20486;-82
2022/08/31 04:44:07;;;;;;;1.57;1.20;;;15.80;99.90;;;;;;5109482;28;20555;-80
2022/08/31 04:46:38;;;;;;;1.93;1.73;;;15.80;99.90;;;;;;5110358;28;21142;-81
2022/08/31 04:49:09;;;;;;;2.50;1.27;;;15.70;99.90;;;;;;5113356;28;20471;-81
2022/08/31 04:51:43;;;;;;;1.80;1.70;;;15.80;99.90;;;;;;5108626;27;20472;-81
2022/08/31 04:54:13;;;;;;;3.30;2.47;;;15.80;99.90;;;;;;5106015;27;20461;-81
2022/08/31 04:56:44;;;;;;;2.57;2.10;;;15.70;99.90;;;;;;5106151;27;20960;-81
2022/08/31 04:59:13;;;;;;;1.57;1.47;;;15.80;99.90;;;;;;5105346;27;20456;-84
2022/08/31 05:01:43;;;;;;;2.20;1.77;;;15.80;99.90;;;;;;5101562;27;20943;-84
2022/08/31 05:04:13;;;;;;;2.50;2.00;;;15.90;99.90;;;;;;5106786;27;20528;-84
2022/08/31 05:06:42;;;;;;;5.33;2.10;;;15.90;99.90;;;;;;5114030;27;20463;-82
2022/08/31 05:09:13;;;;;;;2.17;1.80;;;15.90;99.90;;;;;;5107104;27;20541;-80
2022/08/31 05:11:40;;;;;;;2.40;1.60;;;15.90;99.90;;;;;;5105369;27;20540;-82
2022/08/31 05:14:08;;;;;;;2.50;2.10;;;16.00;99.90;;;;;;5099456;28;21028;-81
2022/08/31 05:16:38;;;;;;;2.00;1.80;;;16.00;99.90;;;;;;5106679;28;21071;-85
2022/08/31 05:19:05;;;;;;;1.60;1.47;;;16.10;99.90;;;;;;5101482;28;20520;-81
2022/08/31 05:21:36;;;;;;;2.97;2.67;;;16.00;99.90;;;;;;5100498;28;20475;-82
2022/08/31 05:24:06;;;;;;;2.63;1.97;;;16.00;99.90;;;;;;5100061;27;20463;-82
2022/08/31 05:26:36;;;;;;;2.13;1.80;;;16.00;99.90;;;;;;5102445;28;20518;-81
2022/08/31 05:29:06;;;;;;;2.90;2.40;;;16.10;99.90;;;;;;5104516;27;20466;-81
2022/08/31 05:31:33;;;;;;;1.50;1.40;;;16.10;99.90;;;;;;5101103;27;20468;-83
2022/08/31 05:34:01;;;;;;;1.73;1.63;;;16.20;99.90;;;;;;5100692;28;21168;-79
2022/08/31 05:36:28;;;;;;;2.30;1.90;;;16.20;99.90;;;;;;5100645;27;20467;-78
2022/08/31 05:38:59;;;;;;;3.00;1.70;;;16.20;99.90;;;;;;5101880;27;20468;-83
2022/08/31 05:41:27;;;;;;;1.97;1.70;;;16.30;99.90;;;;;;5101149;27;20514;-82
2022/08/31 05:43:54;;;;;;;3.37;2.23;;;16.30;99.90;;;;;;5101943;27;20594;-80
2022/08/31 05:46:21;;;;;;;3.20;1.80;;;16.40;99.90;;;;;;5100449;28;20559;-79
2022/08/31 05:48:48;;;;;;;2.50;2.30;;;16.50;99.90;;;;;;5101835;27;20540;-81
2022/08/31 05:51:17;;;;;;;7.60;2.37;;;16.50;99.90;;;;;;5097835;27;20555;-82
2022/08/31 05:53:44;;;;;;;3.97;2.53;;;16.50;99.90;;;;;;5102296;28;20461;-81
2022/08/31 05:56:16;;;;;;;5.33;2.30;;;16.50;99.90;;;;;;5098106;27;20518;-81
2022/08/31 05:58:44;;;;;;;2.40;2.20;;;16.60;99.90;;;;;;5101902;27;20464;-80
2022/08/31 06:01:15;;;;;;;1.97;1.87;;;16.60;99.90;;;;;;5099517;28;20986;-78
2022/08/31 06:03:47;;;;;;;3.00;1.83;;;16.50;99.90;;;;;;5105316;27;20488;-81
2022/08/31 06:06:14;;;;;;;2.13;1.87;;;16.50;99.90;;;;;;5099578;28;20550;-82
2022/08/31 06:08:42;;;;;;;1.87;1.77;;;16.50;99.90;;;;;;5097783;28;20518;-84
2022/08/31 06:11:16;;;;;;;1.70;1.60;;;16.60;99.90;;;;;;5101412;28;20462;-81
2022/08/31 06:13:43;;;;;;;2.40;1.87;;;16.70;99.90;;;;;;5101348;28;20463;-81
2022/08/31 06:16:10;;;;;;;1.77;1.43;;;16.80;99.90;;;;;;5101364;27;20472;-81
2022/08/31 06:18:39;;;;;;;1.97;1.60;;;16.80;99.90;;;;;;5100356;27;20545;-83
2022/08/31 06:21:11;;;;;;;2.20;1.83;;;16.80;99.90;;;;;;5099655;27;20467;-91
2022/08/31 06:23:41;;;;;;;2.30;2.10;;;16.80;99.90;;;;;;5104203;27;20530;-87
2022/08/31 06:26:11;;;;;;;2.63;1.80;;;16.90;99.90;;;;;;5105466;28;20477;-86
2022/08/31 06:28:41;;;;;;;5.50;2.17;;;17.00;99.90;;;;;;5106455;28;20453;-86
2022/08/31 06:31:14;;;;;;;2.10;1.90;;;17.00;99.90;;;;;;5103703;28;20456;-86
2022/08/31 06:33:42;;;;;;;1.60;1.50;;;17.10;99.90;;;;;;5092050;28;20485;-81
2022/08/31 06:36:11;;;;;;;3.13;1.97;;;17.10;99.90;;;;;;5095292;28;20477;-82
2022/08/31 06:38:39;;;;;;;2.40;1.57;;;17.10;99.90;;;;;;5095947;27;20471;-83
2022/08/31 06:41:17;;;;;;;1.77;1.67;;;17.10;99.90;;;;;;5096273;27;20670;-83
2022/08/31 06:43:46;;;;;;;1.33;1.23;;;17.30;99.90;;;;;;5088863;28;21046;-83
2022/08/31 06:46:16;;;;;;;2.17;1.87;;;17.30;99.90;;;;;;5098198;27;20543;-84
2022/08/31 06:48:44;;;;;;;3.13;2.17;;;17.40;99.90;;;;;;5107278;27;20461;-83
2022/08/31 06:51:13;;;;;;;2.37;1.70;;;17.20;99.90;;;;;;5105582;27;20527;-85
2022/08/31 06:53:42;;;;;;;1.73;1.57;;;17.20;99.90;;;;;;5096822;28;20868;-83
2022/08/31 06:56:11;;;;;;;2.30;1.73;;;17.20;99.90;;;;;;5101668;28;20799;-83
2022/08/31 06:58:39;;;;;;;1.80;1.70;;;17.30;99.90;;;;;;5098267;28;20461;-85
2022/08/31 07:01:10;;;;;;;1.80;1.57;;;17.30;99.90;;;;;;5099016;28;21086;-82
2022/08/31 07:03:38;;;;;;;1.50;1.40;;;17.30;99.90;;;;;;5094603;28;20520;-82
2022/08/31 07:06:08;;;;;;;4.30;1.30;;;17.30;99.90;;;;;;5096613;28;20542;-87
2022/08/31 07:08:37;;;;;;;2.17;1.93;;;17.20;99.90;;;;;;5100220;28;20572;-83
2022/08/31 07:11:04;;;;;;;3.73;1.67;;;17.10;99.90;;;;;;5096085;27;20477;-84
2022/08/31 07:13:31;;;;;;;2.23;2.03;;;17.20;99.90;;;;;;5102698;27;20476;-84
2022/08/31 07:16:05;;;;;;;1.87;1.77;;;17.10;99.90;;;;;;5098706;27;20461;-85
2022/08/31 07:18:34;;;;;;;3.93;1.67;;;17.10;99.90;;;;;;5103275;27;20476;-83
2022/08/31 07:21:12;;;;;;;1.37;1.20;;;17.20;99.90;;;;;;5098543;27;20468;-84
2022/08/31 07:23:41;;;;;;;2.13;1.47;;;17.20;99.90;;;;;;5100428;27;20614;-84
2022/08/31 07:26:10;;;;;;;1.40;1.30;;;17.20;99.90;;;;;;5101193;28;20622;-86
2022/08/31 07:28:41;;;;;;;1.87;1.53;;;17.20;99.90;;;;;;5098545;27;20469;-83
2022/08/31 07:31:08;;;;;;;3.20;2.23;;;17.10;99.90;;;;;;5094636;27;20472;-83
2022/08/31 07:33:37;;;;;;;2.77;2.27;;;17.20;99.90;;;;;;5100574;28;20521;-85
2022/08/31 07:36:09;;;;;;;1.90;1.60;;;17.10;99.90;;;;;;5099973;28;20561;-88
2022/08/31 07:44:23;;;;;;;4.00;2.27;;;17.20;99.90;;;;;;5045244;28;20867;-82
2022/08/31 07:46:53;;;;;;;6.00;1.73;;;17.10;99.90;;;;;;5074306;28;20872;-83
2022/08/31 07:49:22;;;;;;;1.57;1.47;;;17.00;99.90;;;;;;5108279;27;20461;-86
2022/08/31 07:51:50;;;;;;;1.20;1.10;;;16.90;99.90;;;;;;5113656;27;20884;-83
2022/08/31 07:54:19;;;;;;;2.77;2.60;;;17.00;99.90;;;;;;5093651;28;20454;-83
2022/08/31 07:56:50;;;;;;;2.40;2.10;;;17.10;99.90;;;;;;5102741;28;20516;-85
2022/08/31 07:59:17;;;;;;;2.90;2.70;;;17.30;99.90;;;;;;5097719;28;20465;-85
2022/08/31 08:01:45;;;;;;;2.30;1.77;;;17.40;99.90;;;;;;5098989;28;20464;-84
2022/08/31 08:04:20;;;;;;;3.33;3.03;;;17.40;99.90;;;;;;5107703;27;20662;-86
2022/08/31 08:06:49;;;;;;;3.93;2.53;;;17.40;99.90;;;;;;5101621;28;20476;-86
2022/08/31 08:09:16;;;;;;;2.40;1.77;;;17.30;99.90;;;;;;5094993;28;20474;-83
2022/08/31 08:11:45;;;;;;;3.60;1.87;;;17.30;99.90;;;;;;5101818;28;20504;-86
2022/08/31 08:14:13;;;;;;;2.73;2.20;;;17.30;99.90;;;;;;5092524;28;20494;-84
2022/08/31 08:16:40;;;;;;;3.90;2.60;;;17.20;99.90;;;;;;5095562;28;20473;-80
2022/08/31 08:19:07;;;;;;;3.67;2.40;;;17.10;99.90;;;;;;5095496;28;20439;-82
2022/08/31 08:21:35;;;;;;;3.63;2.77;;;17.00;99.90;;;;;;5092936;28;21031;-81
2022/08/31 08:24:04;;;;;;;2.87;2.53;;;16.90;99.90;;;;;;5108341;28;21027;-81
2022/08/31 08:26:31;;;;;;;4.00;3.10;;;17.00;99.90;;;;;;5108270;28;20498;-88
2022/08/31 08:28:58;;;;;;;3.83;2.60;;;17.00;99.90;;;;;;5094680;28;20899;-82
2022/08/31 08:31:27;;;;;;;2.30;1.73;;;17.00;99.90;;;;;;5102319;27;20490;-82
2022/08/31 08:33:55;;;;;;;1.73;1.47;;;17.20;99.90;;;;;;5105221;27;20458;-83
2022/08/31 08:36:22;;;;;;;5.97;2.30;;;17.10;99.90;;;;;;5109348;27;20467;-84
2022/08/31 08:38:52;;;;;;;3.67;3.03;;;17.00;99.90;;;;;;5102013;27;20534;-83
2022/08/31 08:41:26;;;;;;;2.90;2.57;;;16.90;99.90;;;;;;5103683;27;20503;-83
2022/08/31 08:43:55;;;;;;;2.30;1.90;;;16.90;99.90;;;;;;5097120;28;20526;-82
2022/08/31 08:46:32;;;;;;;5.53;3.73;;;17.00;99.90;;;;;;5104911;27;21118;-84
2022/08/31 08:49:14;;;;;;;5.30;2.57;;;17.10;99.90;;;;;;5111142;27;20454;-82
2022/08/31 08:51:42;;;;;;;2.80;2.60;;;17.00;99.90;;;;;;5115250;27;20463;-84
2022/08/31 08:54:13;;;;;;;3.27;3.00;;;17.00;99.90;;;;;;5111847;27;20850;-82
2022/08/31 08:56:47;;;;;;;3.13;2.90;;;16.90;99.90;;;;;;5110497;27;20464;-88
2022/08/31 08:59:15;;;;;;;3.70;3.03;;;17.00;99.90;;;;;;5105204;27;20544;-83
2022/08/31 09:01:45;;;;;;;2.90;2.50;;;17.00;99.90;;;;;;5102971;28;21143;-87
2022/08/31 09:04:25;;;;;;;2.80;2.40;;;16.90;99.90;;;;;;5102122;27;21076;-84
2022/08/31 09:07:05;;;;;;;2.87;2.67;;;16.90;99.90;;;;;;5119664;27;20461;-83
2022/08/31 09:09:38;;;;;;;2.93;2.60;;;16.70;99.90;;;;;;5122147;27;20436;-83
2022/08/31 09:12:19;;;;;;;2.93;2.73;;;16.80;99.90;;;;;;5109963;27;20922;-83
2022/08/31 09:15:00;;;;;;;2.40;2.20;;;16.70;99.90;;;;;;5111487;27;20455;-85
2022/08/31 09:17:41;;;;;;;3.83;2.60;;;16.80;99.90;;;;;;5118858;27;20447;-85
2022/08/31 09:20:12;;;;;;;6.10;3.10;;;16.70;99.90;;;;;;5105070;27;20493;-83
2022/08/31 09:22:47;;;;;;;4.47;3.50;;;16.80;99.90;;;;;;5102658;27;20562;-84
2022/08/31 09:25:18;;;;;;;5.50;4.00;;;16.90;99.90;;;;;;5109590;27;20494;-83
2022/08/31 09:27:55;;;;;;;4.50;3.40;;;17.00;99.90;;;;;;5110928;27;20472;-83
2022/08/31 09:30:39;;;;;;;4.13;3.30;;;17.00;99.90;;;;;;5103865;27;20464;-83
2022/08/31 09:33:07;;;;;;;4.90;3.90;;;17.10;99.90;;;;;;5105153;27;21040;-83
2022/08/31 09:35:40;;;;;;;3.10;2.80;;;16.90;99.90;;;;;;5105009;27;20497;-83
2022/08/31 09:38:10;;;;;;;5.20;3.70;;;16.60;99.90;;;;;;5104550;27;20462;-83
2022/08/31 09:40:40;;;;;;;4.93;4.07;;;16.70;99.90;;;;;;5107394;27;20466;-83
2022/08/31 09:43:12;;;;;;;5.93;4.23;;;16.70;99.90;;;;;;5104474;28;20516;-82
2022/08/31 09:45:53;;;;;;;7.40;3.40;;;16.60;99.90;;;;;;5105413;27;20528;-84
2022/08/31 09:48:44;;;;;;;4.50;3.77;;;16.60;99.90;;;;;;5098822;28;21179;-83
2022/08/31 09:51:20;;;;;;;5.03;3.77;;;16.80;99.90;;;;;;5101978;27;20543;-88
2022/08/31 09:56:35;;;;;;;8.93;5.40;;;16.90;99.90;;;;;;5106982;27;20468;-83
2022/08/31 09:59:04;;;;;;;5.40;4.90;;;16.90;99.90;;;;;;5104652;28;20453;-86
2022/08/31 10:01:44;;;;;;;8.67;3.30;;;16.90;99.90;;;;;;5103466;28;20533;-87
2022/08/31 10:04:18;;;;;;;11.00;3.30;;;17.00;99.90;;;;;;5097424;27;20586;-83
2022/08/31 10:06:54;;;;;;;5.17;3.37;;;17.00;99.90;;;;;;5103199;27;20468;-83
2022/08/31 10:09:32;;;;;;;6.43;3.60;;;17.00;99.90;;;;;;5105071;27;20502;-82
2022/08/31 10:12:06;;;;;;;4.10;3.50;;;17.20;99.90;;;;;;5100249;28;20473;-87
2022/08/31 10:14:40;;;;;;;7.97;4.47;;;17.20;99.90;;;;;;5102305;27;20556;-83
2022/08/31 10:17:14;;;;;;;9.27;5.00;;;17.20;99.90;;;;;;5100001;27;20461;-83
2022/08/31 10:19:56;;;;;;;5.23;4.37;;;17.10;99.90;;;;;;5108092;27;20440;-82
2022/08/31 10:22:30;;;;;;;6.33;4.37;;;17.00;99.90;;;;;;5096596;28;20496;-83
2022/08/31 10:25:23;;;;;;;7.73;4.43;;;17.00;99.90;;;;;;5105337;27;20544;-83
2022/08/31 10:27:54;;;;;;;16.40;8.70;;;17.00;99.90;;;;;;5084373;27;21009;-83
2022/08/31 10:30:34;;;;;;;14.90;8.07;;;17.00;99.90;;;;;;5100980;27;21212;-87
2022/08/31 10:33:10;;;;;;;4.60;4.17;;;16.90;99.90;;;;;;5102644;27;20467;-83
2022/08/31 10:35:47;;;;;;;6.20;3.93;;;16.80;99.90;;;;;;5089798;27;20498;-85
2022/08/31 10:38:25;;;;;;;4.87;3.57;;;16.80;99.90;;;;;;5081312;27;20557;-84
2022/08/31 10:41:03;;;;;;;5.50;4.83;;;16.70;99.90;;;;;;5084403;27;20563;-83
2022/08/31 10:43:37;;;;;;;5.97;5.13;;;16.90;99.90;;;;;;5093100;27;20486;-83
2022/08/31 10:46:06;;;;;;;5.90;4.40;;;16.90;99.90;;;;;;5096056;27;20469;-84
2022/08/31 10:48:50;;;;;;;9.30;5.07;;;16.80;99.90;;;;;;5097083;27;20455;-81
2022/08/31 10:51:25;;;;;;;6.80;4.70;;;16.90;99.90;;;;;;5109309;27;20753;-81
2022/08/31 10:54:15;;;;;;;4.27;3.87;;;16.70;99.90;;;;;;5102378;27;21131;-82
2022/08/31 10:56:58;;;;;;;4.43;4.03;;;16.70;99.90;;;;;;5115956;27;20528;-83
2022/08/31 10:59:33;;;;;;;4.47;4.00;;;16.60;99.90;;;;;;5098083;27;20472;-87
2022/08/31 11:02:31;;;;;;;3.50;3.20;;;16.60;99.90;;;;;;5098125;27;20527;-83
2022/08/31 11:05:15;;;;;;;5.53;4.80;;;16.50;99.90;;;;;;5094598;27;20469;-88
2022/08/31 11:07:51;;;;;;;3.40;2.93;;;16.40;99.90;;;;;;5094251;27;20547;-83
2022/08/31 11:10:32;;;;;;;4.80;4.30;;;16.40;99.90;;;;;;5106510;27;20939;-84
2022/08/31 11:13:07;;;;;;;5.90;4.20;;;16.40;99.90;;;;;;5095514;27;20563;-83
2022/08/31 11:16:00;;;;;;;4.27;3.87;;;16.40;99.90;;;;;;5098826;27;21522;-83
2022/08/31 11:18:50;;;;;;;4.30;3.60;;;16.40;99.90;;;;;;5099863;28;20517;-83
2022/08/31 11:21:41;;;;;;;5.07;4.67;;;16.50;99.90;;;;;;5101260;27;20498;-83
2022/08/31 11:24:31;;;;;;;5.30;4.60;;;16.60;99.90;;;;;;5098784;27;20557;-86
2022/08/31 11:27:10;;;;;;;5.30;3.50;;;16.60;99.90;;;;;;5095240;27;20495;-85
2022/08/31 11:29:42;;;;;;;4.87;3.73;;;16.50;99.90;;;;;;5096925;28;20476;-82
2022/08/31 11:32:20;;;;;;;7.73;4.00;;;16.50;99.90;;;;;;5095612;28;20471;-83
2022/08/31 11:34:52;;;;;;;7.13;4.83;;;16.50;99.90;;;;;;5096771;28;20876;-83
2022/08/31 11:37:54;;;;;;;6.60;4.13;;;16.50;99.90;;;;;;5096478;28;20806;-85
2022/08/31 11:41:12;;;;;;;4.90;3.57;;;16.40;99.90;;;;;;5097046;27;20496;-81
2022/08/31 11:43:52;;;;;;;6.07;5.00;;;16.40;99.90;;;;;;5098487;27;20488;-82
2022/08/31 11:46:49;;;;;;;5.40;3.50;;;16.50;99.90;;;;;;5098764;27;20447;-82
2022/08/31 11:49:45;;;;;;;5.20;3.33;;;16.70;99.90;;;;;;5091331;27;20476;-83
2022/08/31 11:52:30;;;;;;;4.80;3.63;;;16.80;99.90;;;;;;5096172;27;20558;-83
2022/08/31 11:55:17;;;;;;;4.77;4.17;;;16.70;99.90;;;;;;5094085;28;20975;-82
2022/08/31 11:58:14;;;;;;;8.13;4.33;;;16.90;99.90;;;;;;5096806;28;20493;-84
2022/08/31 12:00:48;;;;;;;4.77;3.07;;;17.00;99.90;;;;;;5091514;27;20467;-81
2022/08/31 12:03:49;;;;;;;4.97;3.43;;;17.00;99.90;;;;;;5087618;27;20590;-81
2022/08/31 12:07:07;;;;;;;7.10;3.73;;;17.20;99.90;;;;;;5092558;28;20475;-84
2022/08/31 12:10:06;;;;;;;6.77;3.67;;;17.10;99.90;;;;;;5050425;28;20474;-82
2022/08/31 12:12:53;;;;;;;4.27;3.87;;;17.10;99.90;;;;;;5093516;28;20832;-81
2022/08/31 12:15:31;;;;;;;5.17;3.07;;;17.10;99.90;;;;;;5103080;28;21206;-84
2022/08/31 12:18:16;;;;;;;5.00;3.77;;;16.90;99.90;;;;;;5105342;28;20974;-81
2022/08/31 12:23:44;;;;;;;4.27;2.87;;;16.70;99.90;;;;;;5104939;28;20498;-81
2022/08/31 12:26:44;;;;;;;3.33;2.97;;;16.50;99.90;;;;;;5094930;28;20810;-86
2022/08/31 12:29:28;;;;;;;2.40;2.20;;;16.40;99.90;;;;;;5095237;27;20542;-84
2022/08/31 12:32:22;;;;;;;4.40;2.47;;;16.40;99.90;;;;;;5104476;28;20462;-81
2022/08/31 12:34:55;;;;;;;3.03;2.10;;;16.40;99.90;;;;;;5097610;28;20498;-84
2022/08/31 12:37:25;;;;;;;2.43;1.70;;;16.30;99.90;;;;;;5096408;28;20753;-84
2022/08/31 12:40:17;;;;;;;3.03;2.07;;;16.30;99.90;;;;;;5100203;28;20454;-81
2022/08/31 12:42:58;;;;;;;2.00;1.90;;;16.30;99.90;;;;;;5096859;28;20465;-82
2022/08/31 12:45:55;;;;;;;2.10;1.90;;;16.30;99.90;;;;;;5097835;28;20495;-82
2022/08/31 12:48:38;;;;;;;2.17;1.80;;;16.20;99.90;;;;;;5091338;28;20554;-87
2022/08/31 12:51:17;;;;;;;2.53;2.33;;;16.30;99.90;;;;;;5096907;28;20474;-81
2022/08/31 12:54:09;;;;;;;2.93;1.77;;;16.30;99.90;;;;;;5096824;28;20561;-82
2022/08/31 12:56:47;;;;;;;3.97;2.40;;;16.40;99.90;;;;;;5092876;28;20525;-83
2022/08/31 12:59:30;;;;;;;4.73;2.90;;;16.40;99.90;;;;;;5096765;28;20502;-82
2022/08/31 13:02:00;;;;;;;2.83;1.80;;;16.30;99.90;;;;;;5090184;28;20998;-82
2022/08/31 13:04:30;;;;;;;2.10;1.87;;;16.30;99.90;;;;;;5098736;28;20687;-83
2022/08/31 13:07:12;;;;;;;1.93;1.70;;;16.20;99.90;;;;;;5099855;27;20473;-83
2022/08/31 13:09:41;;;;;;;1.67;1.43;;;16.10;99.90;;;;;;5100771;27;20471;-81
2022/08/31 13:12:08;;;;;;;1.67;1.30;;;16.10;99.90;;;;;;5099838;27;20463;-83
2022/08/31 13:14:43;;;;;;;2.87;1.53;;;16.00;99.90;;;;;;5097492;28;20465;-85
2022/08/31 13:17:16;;;;;;;3.43;2.30;;;16.00;99.90;;;;;;5102823;27;20475;-82
2022/08/31 13:19:50;;;;;;;1.83;1.47;;;15.90;99.90;;;;;;5097797;27;20466;-85
2022/08/31 13:22:28;;;;;;;1.60;1.50;;;16.00;99.90;;;;;;5099219;27;20488;-82
2022/08/31 13:24:59;;;;;;;1.77;1.63;;;15.80;99.90;;;;;;5092734;27;20587;-82
2022/08/31 13:27:29;;;;;;;2.90;1.40;;;15.80;99.90;;;;;;5096171;27;20491;-82